Time;durP1;ratioP1;P1;durP2;ratioP2;P2;SDS_P1;SDS_P2;PMS_P1;PMS_P2;Temp;Humidity;BMP_temperature;BMP_pressure;BME280_temperature;BME280_humidity;BME280_pressure;Samples;Min_cycle;Max_cycle;Signal;HPM_P1;HPM_P2
2021/10/28 00:12:37;;;;;;;8.13;4.38;;;10.20;99.90;;;;;;5087584;28;20030;-46
2021/10/28 00:15:06;;;;;;;7.15;4.30;;;10.20;99.90;;;;;;5073212;28;20024;-45
2021/10/28 00:18:08;;;;;;;6.82;4.55;;;10.10;99.90;;;;;;5086160;28;20081;-45
2021/10/28 00:20:23;;;;;;;7.28;4.65;;;10.10;99.90;;;;;;5086031;28;20040;-47
2021/10/28 00:22:48;;;;;;;7.43;5.25;;;10.10;99.90;;;;;;5088013;28;20500;-47
2021/10/28 00:25:14;;;;;;;8.63;4.80;;;10.10;99.90;;;;;;5088325;28;20370;-44
2021/10/28 00:27:39;;;;;;;8.30;4.90;;;10.00;99.90;;;;;;5087501;28;20032;-45
2021/10/28 00:30:06;;;;;;;7.82;5.43;;;9.90;99.90;;;;;;5088304;28;20565;-45
2021/10/28 00:32:31;;;;;;;9.57;5.30;;;9.90;99.90;;;;;;5088217;28;20017;-44
2021/10/28 00:34:56;;;;;;;8.55;5.28;;;9.90;99.90;;;;;;5088500;28;20077;-45
2021/10/28 00:37:22;;;;;;;6.78;4.72;;;9.80;99.90;;;;;;5087434;28;20028;-45
2021/10/28 00:39:47;;;;;;;5.82;4.55;;;9.80;99.90;;;;;;5088167;28;20024;-47
2021/10/28 00:42:13;;;;;;;7.78;5.32;;;9.70;99.90;;;;;;5076987;28;20621;-48
2021/10/28 00:44:39;;;;;;;7.95;4.70;;;9.70;99.90;;;;;;5074767;28;20028;-45
2021/10/28 00:47:06;;;;;;;8.95;5.85;;;9.60;99.90;;;;;;5087230;28;20054;-45
2021/10/28 00:49:31;;;;;;;7.72;4.85;;;9.60;99.90;;;;;;5089077;28;20043;-44
2021/10/28 00:51:57;;;;;;;9.90;5.70;;;9.60;99.90;;;;;;5091404;28;20024;-44
2021/10/28 00:54:24;;;;;;;11.27;5.60;;;9.50;99.90;;;;;;5091593;28;20032;-45
2021/10/28 00:56:49;;;;;;;7.82;5.15;;;9.60;99.90;;;;;;5090213;28;20020;-45
2021/10/28 00:59:15;;;;;;;11.48;5.57;;;9.50;99.90;;;;;;5090798;28;20309;-45
2021/10/28 01:01:41;;;;;;;7.80;5.15;;;9.50;99.90;;;;;;5091386;28;20104;-45
2021/10/28 01:04:07;;;;;;;8.02;5.10;;;9.40;99.90;;;;;;5091249;28;20098;-46
2021/10/28 01:06:34;;;;;;;5.65;4.47;;;9.30;99.90;;;;;;5091058;28;20137;-45
2021/10/28 01:09:00;;;;;;;6.43;4.63;;;9.20;99.90;;;;;;5090595;28;20028;-45
2021/10/28 01:11:27;;;;;;;7.30;4.65;;;9.10;99.90;;;;;;5091135;28;20374;-44
2021/10/28 01:13:56;;;;;;;6.85;4.60;;;9.10;99.90;;;;;;5073391;28;20012;-45
2021/10/28 01:16:22;;;;;;;5.88;4.68;;;9.00;99.90;;;;;;5086021;28;20059;-47
2021/10/28 01:18:47;;;;;;;5.95;4.63;;;9.00;99.90;;;;;;5090350;28;20055;-45
2021/10/28 01:21:13;;;;;;;7.65;4.82;;;8.90;99.90;;;;;;5090906;28;20051;-45
2021/10/28 01:23:41;;;;;;;7.72;4.90;;;8.90;99.90;;;;;;5090861;28;20103;-45
2021/10/28 01:26:10;;;;;;;7.00;4.20;;;8.90;99.90;;;;;;5090904;28;20032;-45
2021/10/28 01:28:48;;;;;;;6.97;4.90;;;8.80;99.90;;;;;;5090185;28;20470;-45
2021/10/28 01:31:14;;;;;;;8.75;4.93;;;8.80;99.90;;;;;;5072567;28;20512;-44
2021/10/28 01:33:40;;;;;;;6.72;5.53;;;8.80;99.90;;;;;;5090536;28;20106;-45
2021/10/28 01:36:06;;;;;;;6.28;4.72;;;8.80;99.90;;;;;;5090763;28;20061;-46
2021/10/28 01:38:32;;;;;;;7.10;5.18;;;8.80;99.90;;;;;;5089956;28;20416;-45
2021/10/28 01:41:00;;;;;;;8.43;4.90;;;8.80;99.90;;;;;;5090522;28;20036;-45
2021/10/28 01:43:28;;;;;;;8.52;5.03;;;8.70;99.90;;;;;;5074280;28;20048;-45
2021/10/28 01:45:54;;;;;;;10.07;4.82;;;8.70;99.90;;;;;;5082057;28;20031;-45
2021/10/28 01:48:21;;;;;;;7.03;4.55;;;8.60;99.90;;;;;;5089841;28;20474;-45
2021/10/28 01:50:47;;;;;;;6.70;4.47;;;8.50;99.90;;;;;;5080523;28;20052;-46
2021/10/28 01:53:14;;;;;;;6.32;4.63;;;8.50;99.90;;;;;;5067228;28;20035;-44
2021/10/28 01:55:40;;;;;;;7.10;4.55;;;8.40;99.90;;;;;;5070368;28;20024;-45
2021/10/28 01:58:06;;;;;;;5.38;3.80;;;8.40;99.90;;;;;;5069135;28;20035;-45
2021/10/28 02:00:32;;;;;;;6.38;4.10;;;8.30;99.90;;;;;;5069752;28;20056;-45
2021/10/28 02:02:58;;;;;;;16.50;5.50;;;8.30;99.90;;;;;;5069941;28;20472;-45
2021/10/28 02:05:23;;;;;;;6.47;4.68;;;8.30;99.90;;;;;;5069881;28;20029;-45
2021/10/28 02:07:50;;;;;;;5.68;3.97;;;8.30;99.90;;;;;;5069511;28;20033;-45
2021/10/28 02:10:17;;;;;;;8.43;4.80;;;8.20;99.90;;;;;;5069757;28;20032;-45
2021/10/28 02:12:45;;;;;;;6.47;4.38;;;8.20;99.90;;;;;;5061061;28;20025;-46
2021/10/28 02:15:12;;;;;;;6.65;5.18;;;8.20;99.90;;;;;;5061212;28;20060;-45
2021/10/28 02:17:38;;;;;;;6.70;4.97;;;8.20;99.90;;;;;;5083695;28;20158;-45
2021/10/28 02:20:06;;;;;;;8.15;4.38;;;8.20;99.90;;;;;;5089579;28;20030;-45
2021/10/28 02:22:32;;;;;;;6.20;4.47;;;8.10;99.90;;;;;;5088353;28;20305;-48
2021/10/28 02:24:58;;;;;;;7.32;4.97;;;8.10;99.90;;;;;;5088097;28;20466;-45
2021/10/28 02:27:24;;;;;;;5.53;4.38;;;8.10;99.90;;;;;;5061102;28;20024;-46
2021/10/28 02:29:49;;;;;;;6.63;4.93;;;8.00;99.90;;;;;;5080848;28;20031;-47
2021/10/28 02:32:15;;;;;;;5.72;4.38;;;8.00;99.90;;;;;;5089706;28;20444;-44
2021/10/28 02:34:41;;;;;;;7.15;4.88;;;8.00;99.90;;;;;;5090074;28;20485;-45
2021/10/28 02:37:07;;;;;;;7.25;4.90;;;8.00;99.90;;;;;;5089458;28;20016;-44
2021/10/28 02:39:32;;;;;;;7.40;4.55;;;7.90;99.90;;;;;;5088409;28;20040;-45
2021/10/28 02:41:58;;;;;;;8.00;5.05;;;7.90;99.90;;;;;;5087564;28;20031;-45
2021/10/28 02:44:24;;;;;;;6.88;4.18;;;7.90;99.90;;;;;;5072684;28;20490;-45
2021/10/28 02:46:50;;;;;;;9.73;5.13;;;7.90;99.90;;;;;;5087105;28;20055;-45
2021/10/28 02:49:16;;;;;;;7.45;5.13;;;7.80;99.90;;;;;;5088981;28;20258;-46
2021/10/28 02:51:46;;;;;;;6.53;4.35;;;7.80;99.90;;;;;;5089528;28;20077;-44
2021/10/28 02:54:15;;;;;;;;;;;7.80;99.90;;;;;;5089814;28;20021;-46
2021/10/28 02:56:41;;;;;;;10.00;5.20;;;7.80;99.90;;;;;;5089163;28;19904;-44
2021/10/28 02:59:07;;;;;;;8.48;5.20;;;7.80;99.90;;;;;;5088206;28;20040;-45
2021/10/28 03:01:32;;;;;;;8.02;5.65;;;7.80;99.90;;;;;;5087887;28;20461;-44
2021/10/28 03:03:58;;;;;;;7.70;5.75;;;7.80;99.90;;;;;;5089212;28;20069;-45
2021/10/28 03:06:23;;;;;;;9.73;5.88;;;7.80;99.90;;;;;;5089074;28;20111;-45
2021/10/28 03:08:50;;;;;;;10.65;5.93;;;7.90;99.90;;;;;;5088421;28;20024;-45
2021/10/28 03:11:17;;;;;;;6.80;5.57;;;7.80;99.90;;;;;;5089324;28;20112;-45
2021/10/28 03:13:44;;;;;;;8.32;4.93;;;7.80;99.90;;;;;;5075423;28;20024;-45
2021/10/28 03:16:24;;;;;;;9.10;5.97;;;7.70;99.90;;;;;;5082344;28;20036;-45
2021/10/28 03:19:26;;;;;;;10.55;7.05;;;7.70;99.90;;;;;;5088128;28;20047;-44
2021/10/28 03:27:25;;;;;;;7.25;5.40;;;7.60;99.90;;;;;;5088138;28;20493;-45
2021/10/28 03:29:50;;;;;;;5.80;4.80;;;7.60;99.90;;;;;;5088696;28;20032;-45
2021/10/28 03:32:16;;;;;;;11.13;5.70;;;7.50;99.90;;;;;;5088570;28;20099;-45
2021/10/28 03:34:43;;;;;;;9.95;6.05;;;7.50;99.90;;;;;;5088888;28;20095;-44
2021/10/28 03:37:15;;;;;;;8.40;6.10;;;7.60;99.90;;;;;;5079073;28;20063;-45
2021/10/28 03:40:03;;;;;;;10.00;6.90;;;7.60;99.90;;;;;;5055553;28;20051;-44
2021/10/28 03:45:28;;;;;;;12.60;6.20;;;7.50;99.90;;;;;;5068710;28;20108;-46
2021/10/28 03:50:59;;;;;;;10.07;6.13;;;7.50;99.90;;;;;;5054470;28;20064;-46
2021/10/28 03:56:43;;;;;;;8.65;6.30;;;7.40;99.90;;;;;;5049038;28;20429;-45
2021/10/28 04:31:29;;;;;;;12.35;5.68;;;7.10;99.90;;;;;;5071100;28;20122;-48
2021/10/28 04:33:58;;;;;;;8.23;5.85;;;7.10;99.90;;;;;;5071410;28;20024;-49
2021/10/28 04:36:28;;;;;;;9.82;5.45;;;7.10;99.90;;;;;;5070902;28;20021;-48
2021/10/28 04:38:53;;;;;;;9.30;5.90;;;7.10;99.90;;;;;;5070309;28;20021;-48
2021/10/28 04:41:19;;;;;;;13.50;7.85;;;7.20;99.90;;;;;;5071084;28;20485;-47
2021/10/28 04:43:45;;;;;;;7.88;6.07;;;7.10;99.90;;;;;;5075011;28;20480;-47
2021/10/28 04:46:10;;;;;;;7.78;5.50;;;7.10;99.90;;;;;;5070388;28;20112;-47
2021/10/28 04:48:36;;;;;;;8.38;5.53;;;7.00;99.90;;;;;;5067646;28;20036;-48
2021/10/28 04:51:01;;;;;;;9.13;5.63;;;7.00;99.90;;;;;;5070861;28;20435;-48
2021/10/28 04:53:28;;;;;;;7.65;4.93;;;6.90;99.90;;;;;;5070690;28;20103;-48
2021/10/28 04:55:54;;;;;;;7.90;5.07;;;6.90;99.90;;;;;;5070824;28;20052;-50
2021/10/28 04:58:20;;;;;;;8.95;5.10;;;6.90;99.90;;;;;;5069969;28;20081;-48
2021/10/28 05:00:45;;;;;;;8.05;5.30;;;6.90;99.90;;;;;;5069175;28;20550;-47
2021/10/28 05:03:11;;;;;;;8.60;5.45;;;6.80;99.90;;;;;;5070698;28;20167;-50
2021/10/28 05:05:36;;;;;;;8.77;5.57;;;6.80;99.90;;;;;;5070637;28;20190;-50
2021/10/28 05:08:02;;;;;;;13.93;6.38;;;6.80;99.90;;;;;;5069593;28;20472;-48
2021/10/28 05:10:30;;;;;;;9.85;6.40;;;6.80;99.90;;;;;;5070383;28;20225;-48
2021/10/28 05:12:56;;;;;;;10.27;5.85;;;6.80;99.90;;;;;;5072112;28;20051;-49
2021/10/28 05:15:21;;;;;;;9.32;6.13;;;6.80;99.90;;;;;;5075418;28;20383;-48
2021/10/28 05:17:47;;;;;;;9.15;6.25;;;6.70;99.90;;;;;;5067781;28;20551;-50
2021/10/28 05:20:14;;;;;;;10.68;6.40;;;6.70;99.90;;;;;;5070817;28;20538;-49
2021/10/28 05:22:40;;;;;;;10.98;6.70;;;6.70;99.90;;;;;;5069587;28;20028;-50
2021/10/28 05:25:06;;;;;;;10.52;5.97;;;6.70;99.90;;;;;;5068620;28;20440;-48
2021/10/28 05:27:31;;;;;;;9.88;6.65;;;6.60;99.90;;;;;;5069508;28;20034;-48
2021/10/28 05:29:57;;;;;;;9.32;6.22;;;6.70;99.90;;;;;;5070384;28;20123;-48
2021/10/28 05:32:22;;;;;;;8.40;5.60;;;6.70;99.90;;;;;;5070752;28;20024;-48
2021/10/28 05:34:48;;;;;;;8.40;6.35;;;6.60;99.90;;;;;;5070356;28;20043;-48
2021/10/28 05:37:14;;;;;;;11.63;7.03;;;6.60;99.90;;;;;;5069858;28;20090;-49
2021/10/28 05:39:40;;;;;;;12.20;6.20;;;6.60;99.90;;;;;;5070327;28;20048;-47
2021/10/28 05:42:06;;;;;;;13.50;7.75;;;6.60;99.90;;;;;;5070433;28;20024;-49
2021/10/28 05:44:31;;;;;;;14.85;7.10;;;6.60;99.90;;;;;;5075407;28;20444;-49
2021/10/28 05:46:58;;;;;;;11.27;7.40;;;6.60;99.90;;;;;;5090294;28;20036;-50
2021/10/28 05:49:26;;;;;;;9.10;6.45;;;6.60;99.90;;;;;;5089975;28;20066;-50
2021/10/28 05:51:52;;;;;;;12.10;7.80;;;6.60;99.90;;;;;;5090196;28;20025;-47
2021/10/28 05:54:17;;;;;;;9.32;7.07;;;6.60;99.90;;;;;;5090381;28;20055;-49
2021/10/28 05:56:43;;;;;;;12.65;7.57;;;6.60;99.90;;;;;;5090347;28;20091;-47
2021/10/28 05:59:08;;;;;;;10.70;6.93;;;6.50;99.90;;;;;;5089879;28;20025;-50
2021/10/28 06:01:34;;;;;;;10.90;7.10;;;6.50;99.90;;;;;;5090653;28;20024;-47
2021/10/28 06:03:59;;;;;;;11.20;7.50;;;6.60;99.90;;;;;;5090128;28;20020;-50
2021/10/28 06:06:25;;;;;;;11.48;8.10;;;6.60;99.90;;;;;;5090104;28;20094;-47
2021/10/28 06:08:50;;;;;;;12.60;6.97;;;6.50;99.90;;;;;;5089349;28;20025;-49
2021/10/28 06:11:16;;;;;;;9.27;6.85;;;6.60;99.90;;;;;;5090094;28;20028;-50
2021/10/28 06:13:45;;;;;;;12.40;6.40;;;6.50;99.90;;;;;;5085527;28;20211;-47
2021/10/28 06:16:11;;;;;;;9.88;7.13;;;6.50;99.90;;;;;;5082150;28;20492;-50
2021/10/28 06:18:41;;;;;;;14.65;8.43;;;6.50;99.90;;;;;;5089535;28;20028;-48
2021/10/28 06:21:09;;;;;;;10.68;7.22;;;6.50;99.90;;;;;;5089645;28;20036;-51
2021/10/28 06:23:35;;;;;;;14.45;9.30;;;6.50;99.90;;;;;;5089712;28;20036;-51
2021/10/28 06:26:00;;;;;;;18.30;9.38;;;6.60;99.90;;;;;;5088380;28;20053;-46
2021/10/28 06:28:26;;;;;;;12.73;8.70;;;6.60;99.90;;;;;;5089246;28;20055;-47
2021/10/28 06:30:51;;;;;;;14.90;8.85;;;6.60;99.90;;;;;;5089730;28;20024;-49
2021/10/28 06:33:26;;;;;;;13.85;8.20;;;6.70;99.90;;;;;;5089646;28;20043;-46
2021/10/28 06:35:52;;;;;;;11.75;8.18;;;6.70;99.90;;;;;;5089505;28;20019;-47
2021/10/28 06:38:18;;;;;;;13.75;8.52;;;6.70;99.90;;;;;;5088818;28;20035;-48
2021/10/28 06:40:43;;;;;;;14.25;9.02;;;6.70;99.90;;;;;;5089457;28;20062;-49
2021/10/28 06:43:10;;;;;;;13.73;8.77;;;6.70;99.90;;;;;;5075931;28;20057;-49
2021/10/28 06:45:36;;;;;;;12.93;7.93;;;6.80;99.90;;;;;;5074116;28;20025;-47
2021/10/28 06:48:03;;;;;;;13.25;8.23;;;6.80;99.90;;;;;;5088152;28;20092;-48
2021/10/28 06:50:33;;;;;;;13.70;8.23;;;6.80;99.90;;;;;;5089401;28;20035;-49
2021/10/28 06:53:09;;;;;;;12.40;8.50;;;6.80;99.90;;;;;;5089555;28;20027;-48
2021/10/28 06:55:55;;;;;;;16.88;8.77;;;6.90;99.90;;;;;;5089707;28;20058;-47
2021/10/28 07:03:49;;;;;;;12.30;8.48;;;7.00;99.90;;;;;;5089358;28;20089;-49
2021/10/28 07:06:20;;;;;;;10.23;7.85;;;7.00;99.90;;;;;;5089112;28;20597;-48
2021/10/28 07:08:48;;;;;;;12.57;8.23;;;7.00;99.90;;;;;;5088395;28;20027;-48
2021/10/28 07:11:19;;;;;;;13.93;8.95;;;7.00;99.90;;;;;;5089218;28;20023;-46
2021/10/28 07:13:48;;;;;;;11.88;8.82;;;7.10;99.90;;;;;;5072350;28;20029;-46
2021/10/28 07:19:17;;;;;;;13.48;9.30;;;7.10;99.90;;;;;;5088371;28;20032;-48
2021/10/28 07:22:17;;;;;;;12.65;7.63;;;7.20;99.90;;;;;;5087597;28;20028;-48
2021/10/28 07:24:54;;;;;;;16.98;8.70;;;7.20;99.90;;;;;;5089456;28;20088;-48
2021/10/28 07:32:32;;;;;;;14.30;7.70;;;7.40;99.90;;;;;;5088664;28;20023;-46
2021/10/28 08:00:29;;;;;;;13.90;8.80;;;8.20;99.90;;;;;;5079909;28;20039;-48
2021/10/28 08:05:48;;;;;;;13.60;8.20;;;8.50;99.90;;;;;;5093022;28;20035;-48
2021/10/28 08:16:27;;;;;;;11.95;8.77;;;9.20;99.90;;;;;;5084038;28;20465;-51
2021/10/28 08:29:24;;;;;;;14.60;9.90;;;9.70;99.90;;;;;;5091794;28;20443;-47
2021/10/28 08:31:54;;;;;;;14.18;8.90;;;9.80;99.90;;;;;;5092093;28;20043;-47
2021/10/28 08:34:43;;;;;;;18.75;10.32;;;9.90;99.90;;;;;;5090484;28;20179;-48
2021/10/28 08:37:16;;;;;;;14.80;8.75;;;10.10;99.90;;;;;;5091198;28;20032;-50
2021/10/28 08:39:44;;;;;;;14.13;9.35;;;10.20;99.90;;;;;;5092049;28;20032;-51
2021/10/28 08:42:13;;;;;;;14.52;8.70;;;10.30;99.90;;;;;;5091816;28;20024;-50
2021/10/28 08:44:47;;;;;;;11.35;7.60;;;10.40;99.90;;;;;;5074126;28;20076;-50
2021/10/28 08:47:13;;;;;;;11.65;7.00;;;10.50;99.90;;;;;;5084971;28;20028;-49
2021/10/28 08:49:44;;;;;;;12.50;6.55;;;10.60;99.90;;;;;;5091528;28;20031;-51
2021/10/28 09:19:31;;;;;;;11.50;6.93;;;11.10;99.90;;;;;;5091676;28;20060;-49
2021/10/28 09:24:18;;;;;;;4.03;3.00;;;17.20;99.90;;;;;;5091242;28;20401;-50
2021/10/28 09:30:03;;;;;;;4.60;2.95;;;22.20;95.70;;;;;;5090865;28;20039;-51
2021/10/28 09:32:49;;;;;;;5.68;2.80;;;23.90;90.00;;;;;;5090987;28;20469;-51
2021/10/28 09:35:27;;;;;;;4.70;2.63;;;25.40;78.30;;;;;;5090707;28;20030;-51
2021/10/28 09:43:35;;;;;;;4.35;3.00;;;27.90;66.40;;;;;;5090990;28;20681;-52
2021/10/28 09:44:10;;;;;;;5.95;2.22;;;28.40;60.70;;;;;;5075513;28;20032;-52
2021/10/28 09:46:52;;;;;;;3.97;2.80;;;29.20;58.90;;;;;;5081069;28;20032;-52
2021/10/28 09:51:56;;;;;;;3.85;2.70;;;30.40;53.80;;;;;;5089819;28;20024;-52
2021/10/28 09:57:54;;;;;;;2.33;1.90;;;30.90;52.10;;;;;;5074033;28;20039;-52
2021/10/28 10:00:32;;;;;;;5.13;2.50;;;30.90;52.60;;;;;;5049308;28;20021;-52
2021/10/28 10:03:07;;;;;;;4.18;2.10;;;31.10;51.50;;;;;;5064833;28;20114;-52
2021/10/28 10:05:33;;;;;;;5.13;2.10;;;30.70;53.00;;;;;;5069379;28;20032;-52
2021/10/28 10:07:59;;;;;;;2.85;2.20;;;31.10;50.70;;;;;;5069096;28;20028;-52
2021/10/28 10:10:28;;;;;;;2.40;1.70;;;31.80;49.20;;;;;;5069636;28;20537;-52
2021/10/28 10:12:55;;;;;;;3.17;1.90;;;31.60;50.10;;;;;;5069529;28;20036;-52
2021/10/28 10:15:21;;;;;;;2.72;2.03;;;31.30;50.20;;;;;;5069046;28;20052;-52
2021/10/28 10:17:55;;;;;;;4.03;2.22;;;31.60;49.90;;;;;;5068951;28;20067;-53
2021/10/28 10:20:31;;;;;;;4.43;2.30;;;31.30;49.20;;;;;;5068962;28;20471;-53
2021/10/28 10:23:39;;;;;;;3.30;2.03;;;31.40;49.80;;;;;;5066846;28;20039;-52
2021/10/28 12:16:17;;;;;;;4.70;3.38;;;28.00;53.70;;;;;;5077062;28;20120;-51
2021/10/28 12:52:29;;;;;;;6.28;2.50;;;24.90;60.50;;;;;;5091422;28;20028;-50
2021/10/28 13:52:15;;;;;;;5.35;3.70;;;21.80;68.50;;;;;;5066899;28;20291;-50
2021/10/28 13:55:05;;;;;;;7.75;3.10;;;21.70;68.60;;;;;;5061576;28;20047;-48
2021/10/28 13:57:42;;;;;;;6.97;3.53;;;21.70;67.70;;;;;;5069144;28;20485;-51
2021/10/28 14:19:45;;;;;;;3.20;2.90;;;20.30;71.10;;;;;;5089620;28;20031;-47
2021/10/28 14:22:28;;;;;;;4.30;3.05;;;20.10;71.90;;;;;;5071075;28;20111;-49
2021/10/28 14:25:22;;;;;;;3.67;2.55;;;19.80;72.60;;;;;;5060120;28;20060;-49
2021/10/28 14:33:34;;;;;;;6.95;2.40;;;19.20;75.30;;;;;;5051843;28;20139;-47
2021/10/28 14:36:39;;;;;;;7.05;2.70;;;19.00;76.00;;;;;;5049246;28;20256;-47
2021/10/28 14:39:14;;;;;;;2.65;1.85;;;18.90;76.80;;;;;;5061893;28;20482;-47
2021/10/28 15:33:53;;;;;;;3.80;3.22;;;16.80;95.30;;;;;;5068522;28;20025;-50
2021/10/28 15:38:35;;;;;;;6.18;4.40;;;16.70;96.10;;;;;;5047901;28;20048;-50
2021/10/28 15:41:38;;;;;;;5.97;3.75;;;16.60;97.10;;;;;;5047358;28;20033;-49
2021/10/28 15:52:55;;;;;;;7.13;5.05;;;16.00;99.90;;;;;;5087344;28;20081;-48
2021/10/28 15:55:29;;;;;;;5.15;3.92;;;15.90;99.90;;;;;;5088296;28;20031;-47
2021/10/28 16:22:33;;;;;;;8.23;5.50;;;14.40;99.90;;;;;;5071891;28;20401;-50
2021/10/28 16:24:58;;;;;;;7.65;5.47;;;14.40;99.90;;;;;;5071517;28;20024;-48
2021/10/28 16:27:24;;;;;;;7.20;5.20;;;14.20;99.90;;;;;;5069773;28;20381;-47
2021/10/28 16:29:49;;;;;;;8.48;6.43;;;14.00;99.90;;;;;;5070051;28;20017;-48
2021/10/28 16:32:16;;;;;;;9.10;6.30;;;14.00;99.90;;;;;;5071556;28;20440;-50
2021/10/28 16:34:42;;;;;;;6.28;5.00;;;13.90;99.90;;;;;;5071540;28;20204;-47
2021/10/28 16:37:07;;;;;;;9.60;6.35;;;13.80;99.90;;;;;;5070976;28;20323;-47
2021/10/28 16:39:34;;;;;;;12.57;6.95;;;13.70;99.90;;;;;;5071467;28;20075;-48
2021/10/28 16:41:59;;;;;;;8.50;6.30;;;13.60;99.90;;;;;;5071280;28;20017;-48
2021/10/28 16:44:26;;;;;;;7.85;6.13;;;13.50;99.90;;;;;;5065863;28;20044;-48
2021/10/28 16:46:53;;;;;;;10.00;6.57;;;13.40;99.90;;;;;;5081501;28;20095;-47
2021/10/28 16:49:20;;;;;;;8.63;6.53;;;13.30;99.90;;;;;;5091128;28;20029;-47
2021/10/28 16:51:46;;;;;;;7.53;6.15;;;13.20;99.90;;;;;;5091643;28;20024;-49
2021/10/28 16:54:13;;;;;;;9.18;6.78;;;13.10;99.90;;;;;;5091592;28;20106;-47
2021/10/28 16:56:39;;;;;;;8.20;6.15;;;13.00;99.90;;;;;;5091302;28;20024;-47
2021/10/28 16:59:05;;;;;;;9.77;7.25;;;12.80;99.90;;;;;;5090817;28;20039;-49
2021/10/28 17:01:31;;;;;;;14.25;8.00;;;12.90;99.90;;;;;;5090038;28;20028;-48
2021/10/28 17:03:56;;;;;;;10.23;7.15;;;12.90;99.90;;;;;;5091413;28;20027;-48
2021/10/28 17:06:22;;;;;;;10.02;7.43;;;12.90;99.90;;;;;;5091551;28;20024;-48
2021/10/28 17:08:49;;;;;;;9.63;7.47;;;12.70;99.90;;;;;;5090700;28;20024;-48
2021/10/28 17:11:15;;;;;;;14.77;8.88;;;12.60;99.90;;;;;;5091529;28;20025;-49
2021/10/28 17:13:42;;;;;;;11.05;7.55;;;12.60;99.90;;;;;;5091401;28;20024;-47
2021/10/28 17:16:08;;;;;;;13.45;7.15;;;12.50;99.90;;;;;;5076723;28;20446;-47
2021/10/28 17:18:34;;;;;;;12.10;8.20;;;12.40;99.90;;;;;;5087728;28;20032;-48
2021/10/28 17:21:04;;;;;;;10.38;7.22;;;12.40;99.90;;;;;;5091205;28;20020;-50
2021/10/28 17:23:32;;;;;;;10.20;7.45;;;12.30;99.90;;;;;;5091292;28;20198;-48
2021/10/28 17:26:00;;;;;;;10.90;7.68;;;12.30;99.90;;;;;;5091584;28;20507;-50
2021/10/28 17:28:26;;;;;;;13.00;8.70;;;12.20;99.90;;;;;;5090866;28;20036;-47
2021/10/28 17:30:52;;;;;;;12.25;7.32;;;12.10;99.90;;;;;;5090423;28;20020;-47
2021/10/28 17:33:17;;;;;;;12.60;8.52;;;12.00;99.90;;;;;;5091502;28;20020;-49
2021/10/28 17:35:43;;;;;;;12.38;8.45;;;12.00;99.90;;;;;;5091425;28;20028;-48
2021/10/28 17:38:08;;;;;;;13.05;8.10;;;11.90;99.90;;;;;;5090207;28;20386;-50
2021/10/28 17:40:34;;;;;;;13.43;9.30;;;11.90;99.90;;;;;;5089316;28;20128;-47
2021/10/28 17:42:59;;;;;;;13.07;9.30;;;11.90;99.90;;;;;;5090623;28;20297;-50
2021/10/28 17:45:28;;;;;;;12.95;8.80;;;11.80;99.90;;;;;;5080557;28;20047;-48
2021/10/28 17:47:55;;;;;;;14.45;8.90;;;11.90;99.90;;;;;;5081497;28;20031;-47
2021/10/28 17:50:22;;;;;;;12.15;8.32;;;11.90;99.90;;;;;;5090249;28;20135;-49
2021/10/28 17:52:48;;;;;;;13.73;8.23;;;11.90;99.90;;;;;;5089127;28;20049;-47
2021/10/28 17:55:15;;;;;;;12.98;7.63;;;11.90;99.90;;;;;;5090389;28;20191;-48
2021/10/28 17:57:44;;;;;;;11.60;6.72;;;12.00;99.90;;;;;;5089300;28;20539;-47
2021/10/28 18:00:12;;;;;;;8.70;6.53;;;12.00;99.90;;;;;;5087554;28;20051;-48
2021/10/28 18:02:38;;;;;;;8.50;6.38;;;12.00;99.90;;;;;;5088127;28;20016;-47
2021/10/28 18:05:04;;;;;;;11.60;6.70;;;12.00;99.90;;;;;;5090135;28;20035;-47
2021/10/28 18:07:30;;;;;;;11.68;6.82;;;12.10;99.90;;;;;;5089365;28;20016;-50
2021/10/28 18:09:58;;;;;;;10.23;6.13;;;12.10;99.90;;;;;;5090815;28;20036;-49
2021/10/28 18:12:23;;;;;;;8.38;5.82;;;12.10;99.90;;;;;;5091359;28;20016;-50
2021/10/28 18:14:49;;;;;;;9.70;6.03;;;12.10;99.90;;;;;;5082883;28;20024;-49
2021/10/28 18:17:17;;;;;;;13.77;6.68;;;12.10;99.90;;;;;;5079870;28;20036;-50
2021/10/28 18:19:43;;;;;;;10.82;6.13;;;12.20;99.90;;;;;;5089726;28;20024;-50
2021/10/28 18:22:09;;;;;;;8.20;5.82;;;12.20;99.90;;;;;;5089487;28;20393;-47
2021/10/28 18:24:34;;;;;;;7.95;5.40;;;12.10;99.90;;;;;;5086144;28;20027;-50
2021/10/28 18:27:00;;;;;;;7.40;5.65;;;12.10;99.90;;;;;;5069209;28;20017;-47
2021/10/28 18:29:25;;;;;;;9.55;5.47;;;12.10;99.90;;;;;;5084793;28;20020;-48
2021/10/28 18:31:51;;;;;;;6.55;4.57;;;12.10;99.90;;;;;;5088944;28;20394;-47
2021/10/28 18:34:17;;;;;;;6.28;4.68;;;12.10;99.90;;;;;;5089397;28;20385;-49
2021/10/28 18:36:44;;;;;;;8.93;5.30;;;12.00;99.90;;;;;;5089795;28;20107;-50
2021/10/28 18:39:13;;;;;;;9.23;5.10;;;12.00;99.90;;;;;;5087367;28;20039;-50
2021/10/28 18:41:39;;;;;;;7.22;5.38;;;11.90;99.90;;;;;;5088657;28;20065;-49
2021/10/28 18:44:04;;;;;;;8.27;4.72;;;11.90;99.90;;;;;;5086761;28;20032;-47
2021/10/28 18:46:33;;;;;;;7.35;4.85;;;11.90;99.90;;;;;;5075593;28;20364;-48
2021/10/28 18:49:00;;;;;;;6.97;4.63;;;11.90;99.90;;;;;;5048590;28;20036;-47
2021/10/28 18:51:26;;;;;;;6.55;4.32;;;11.90;99.90;;;;;;5047683;28;20021;-47
2021/10/28 18:53:52;;;;;;;5.55;4.03;;;11.90;99.90;;;;;;5049220;28;20467;-47
2021/10/28 18:56:19;;;;;;;5.57;4.05;;;11.90;99.90;;;;;;5048374;28;20528;-47
2021/10/28 18:58:45;;;;;;;4.80;3.60;;;11.90;99.90;;;;;;5047845;28;20031;-47
2021/10/28 19:01:14;;;;;;;6.47;4.43;;;11.80;99.90;;;;;;5047243;28;20032;-48
2021/10/28 19:03:42;;;;;;;5.30;3.97;;;11.80;99.90;;;;;;5048848;28;20066;-48
2021/10/28 19:06:08;;;;;;;7.35;4.03;;;11.80;99.90;;;;;;5048564;28;20021;-47
2021/10/28 19:08:36;;;;;;;4.95;3.35;;;11.80;99.90;;;;;;5048335;28;20028;-48
2021/10/28 19:11:04;;;;;;;7.05;4.10;;;11.80;99.90;;;;;;5048004;28;20463;-49
2021/10/28 19:13:31;;;;;;;4.75;3.33;;;11.70;99.90;;;;;;5048880;28;20029;-48
2021/10/28 19:15:57;;;;;;;7.43;4.03;;;11.60;99.90;;;;;;5068143;28;20119;-48
2021/10/28 19:18:23;;;;;;;7.03;4.05;;;11.50;99.90;;;;;;5082055;28;20478;-48
2021/10/28 19:20:48;;;;;;;6.65;4.03;;;11.50;99.90;;;;;;5088757;28;20042;-48
2021/10/28 19:23:14;;;;;;;5.47;4.20;;;11.40;99.90;;;;;;5089068;28;20035;-46
2021/10/28 19:25:41;;;;;;;5.00;4.03;;;11.30;99.90;;;;;;5088848;28;20020;-47
2021/10/28 19:28:08;;;;;;;6.35;3.63;;;11.10;99.90;;;;;;5088509;28;20030;-46
2021/10/28 19:30:37;;;;;;;4.13;3.72;;;11.00;99.90;;;;;;5088559;28;20108;-46
2021/10/28 19:33:16;;;;;;;5.63;3.92;;;10.90;99.90;;;;;;5087477;28;20016;-46
2021/10/28 19:35:46;;;;;;;5.60;3.78;;;10.80;99.90;;;;;;5087180;28;20036;-47
2021/10/28 19:38:35;;;;;;;4.67;4.07;;;10.60;99.90;;;;;;5085154;28;20027;-47
2021/10/28 19:46:29;;;;;;;5.18;4.18;;;10.40;99.90;;;;;;5074132;28;20496;-49
2021/10/28 19:48:54;;;;;;;6.50;4.28;;;10.30;99.90;;;;;;5087264;28;20055;-47
2021/10/28 19:51:20;;;;;;;7.60;4.43;;;10.20;99.90;;;;;;5069186;28;20068;-47
2021/10/28 19:53:47;;;;;;;5.93;4.35;;;10.20;99.90;;;;;;5068635;28;20548;-47
2021/10/28 19:56:20;;;;;;;9.98;5.40;;;10.20;99.90;;;;;;5074869;28;20013;-48
2021/10/28 19:58:52;;;;;;;8.10;5.18;;;10.20;99.90;;;;;;5073506;28;20228;-48
2021/10/28 20:06:45;;;;;;;7.07;5.43;;;10.40;99.90;;;;;;5074364;28;20066;-49
2021/10/28 20:20:11;;;;;;;8.80;5.85;;;10.40;99.90;;;;;;5093578;28;20112;-49
2021/10/28 20:22:45;;;;;;;10.50;6.90;;;10.40;99.90;;;;;;5093824;28;20085;-48
2021/10/28 20:25:21;;;;;;;10.90;6.40;;;10.40;99.90;;;;;;5093458;28;20069;-51
2021/10/28 20:27:49;;;;;;;11.82;6.05;;;10.40;99.90;;;;;;5094486;28;20012;-47
2021/10/28 20:30:17;;;;;;;9.02;6.13;;;10.40;99.90;;;;;;5094246;28;20025;-46
2021/10/28 20:32:42;;;;;;;8.52;5.88;;;10.30;99.90;;;;;;5094756;28;20020;-46
2021/10/28 20:35:13;;;;;;;9.57;6.22;;;10.10;99.90;;;;;;5094467;28;20148;-48
2021/10/28 20:37:39;;;;;;;;;;;10.00;99.90;;;;;;5094726;28;20371;-48
2021/10/28 20:40:07;;;;;;;10.07;5.88;;;9.90;99.90;;;;;;5094249;28;20014;-46
2021/10/28 20:42:47;;;;;;;6.95;5.15;;;9.90;99.90;;;;;;5089366;28;20529;-47
2021/10/28 20:45:20;;;;;;;9.73;6.60;;;9.80;99.90;;;;;;5067980;28;20089;-46
2021/10/28 20:47:47;;;;;;;12.45;6.47;;;9.70;99.90;;;;;;5082193;28;20267;-47
2021/10/28 20:50:14;;;;;;;10.48;7.07;;;9.70;99.90;;;;;;5093774;28;20031;-48
2021/10/28 20:52:41;;;;;;;10.68;5.97;;;9.70;99.90;;;;;;5094420;28;20012;-49
2021/10/28 20:55:07;;;;;;;11.85;5.95;;;9.80;99.90;;;;;;5093868;28;20485;-48
2021/10/28 20:57:35;;;;;;;11.82;6.57;;;9.60;99.90;;;;;;5093109;28;20336;-50
2021/10/28 21:00:04;;;;;;;11.75;6.07;;;9.50;99.90;;;;;;5092784;28;20024;-47
2021/10/28 21:02:30;;;;;;;8.63;6.28;;;9.50;99.90;;;;;;5093950;28;20024;-50
2021/10/28 21:04:56;;;;;;;10.38;7.03;;;9.40;99.90;;;;;;5094224;28;20456;-47
2021/10/28 21:07:21;;;;;;;14.50;8.65;;;9.40;99.90;;;;;;5088492;28;20016;-50
2021/10/28 21:09:47;;;;;;;17.27;9.70;;;9.40;99.90;;;;;;5090740;28;20016;-49
2021/10/28 21:12:12;;;;;;;11.57;7.90;;;9.50;99.90;;;;;;5090915;28;20024;-48